createdAt,value
2023-02-28T00:01:33.553Z,9.82
2023-02-28T00:04:01.174Z,10.93
2023-02-28T00:06:28.400Z,11.13
2023-02-28T00:08:55.746Z,11.30
2023-02-28T00:11:22.906Z,12.18
2023-02-28T00:13:50.402Z,11.32
2023-02-28T00:16:21.522Z,10.52
2023-02-28T00:18:49.581Z,10.85
2023-02-28T00:21:18.061Z,10.98
2023-02-28T00:23:45.413Z,11.27
2023-02-28T00:26:12.605Z,12.45
2023-02-28T00:28:39.896Z,12.05
2023-02-28T00:31:07.026Z,13.23
2023-02-28T00:33:34.345Z,12.40
2023-02-28T00:36:10.830Z,11.90
2023-02-28T00:38:39.453Z,9.77
2023-02-28T00:41:07.309Z,11.98
2023-02-28T00:43:36.742Z,11.57
2023-02-28T00:46:04.492Z,11.85
2023-02-28T00:48:32.046Z,10.68
2023-02-28T00:50:59.047Z,10.75
2023-02-28T00:53:26.817Z,10.75
2023-02-28T00:55:53.853Z,10.38
2023-02-28T00:58:21.297Z,10.95
2023-02-28T01:00:51.265Z,10.93
2023-02-28T01:03:20.116Z,11.18
2023-02-28T01:05:47.858Z,11.63
2023-02-28T01:08:15.705Z,12.35
2023-02-28T01:10:43.243Z,11.93
2023-02-28T01:13:10.856Z,10.68
2023-02-28T01:15:38.350Z,13.02
2023-02-28T01:18:05.669Z,11.60
2023-02-28T01:20:32.615Z,11.82
2023-02-28T01:23:00.155Z,12.18
2023-02-28T01:25:27.227Z,12.63
2023-02-28T01:27:54.585Z,10.27
2023-02-28T01:30:21.597Z,12.38
2023-02-28T01:32:48.934Z,10.95
2023-02-28T01:35:16.088Z,11.77
2023-02-28T01:37:43.577Z,13.38
2023-02-28T01:40:11.221Z,12.75
2023-02-28T01:42:38.603Z,13.02
2023-02-28T01:45:34.617Z,13.07
2023-02-28T01:48:06.656Z,14.52
2023-02-28T01:50:40.466Z,13.00
2023-02-28T01:53:11.850Z,10.65
2023-02-28T01:55:39.886Z,12.95
2023-02-28T01:58:09.989Z,13.85
2023-02-28T02:00:37.158Z,13.73
2023-02-28T02:03:15.667Z,15.38
2023-02-28T02:05:48.499Z,11.45
2023-02-28T02:08:23.647Z,13.45
2023-02-28T02:10:57.260Z,12.60
2023-02-28T02:16:17.559Z,12.93
2023-02-28T02:18:48.338Z,12.95
2023-02-28T02:21:24.340Z,14.50
2023-02-28T02:24:13.523Z,14.77
2023-02-28T02:27:19.035Z,14.90
2023-02-28T02:30:27.764Z,18.85
2023-02-28T02:33:28.096Z,17.02
2023-02-28T02:36:25.041Z,13.20
2023-02-28T02:39:03.828Z,13.07
2023-02-28T02:41:47.223Z,13.55
2023-02-28T02:44:47.658Z,15.23
2023-02-28T02:47:20.830Z,12.65
2023-02-28T02:49:53.945Z,13.13
2023-02-28T02:52:25.836Z,13.27
2023-02-28T02:54:57.843Z,14.23
2023-02-28T02:57:31.317Z,12.38
2023-02-28T03:00:00.009Z,14.02
2023-02-28T03:02:34.875Z,13.85
2023-02-28T03:05:06.581Z,12.88
2023-02-28T03:07:35.206Z,13.57
2023-02-28T03:10:02.367Z,12.95
2023-02-28T03:12:42.619Z,15.15
2023-02-28T03:15:19.412Z,16.33
2023-02-28T03:17:51.595Z,14.02
2023-02-28T03:20:37.646Z,12.57
2023-02-28T03:23:30.752Z,13.68
2023-02-28T03:26:03.141Z,14.80
2023-02-28T03:28:51.386Z,14.00
2023-02-28T03:31:18.395Z,14.68
2023-02-28T03:33:56.013Z,12.35
2023-02-28T03:36:28.952Z,12.73
2023-02-28T03:39:03.748Z,13.25
2023-02-28T03:41:37.894Z,13.93
2023-02-28T03:44:16.483Z,15.02
2023-02-28T03:46:53.910Z,15.00
2023-02-28T03:49:29.041Z,14.32
2023-02-28T03:51:59.017Z,13.75
2023-02-28T03:54:33.509Z,15.05
2023-02-28T03:57:16.264Z,12.52
2023-02-28T03:59:48.229Z,13.05
2023-02-28T04:02:15.498Z,15.13
2023-02-28T04:04:49.760Z,16.55
2023-02-28T04:07:18.191Z,14.65
2023-02-28T04:09:45.649Z,14.82
2023-02-28T04:12:12.618Z,14.63
2023-02-28T04:14:39.836Z,13.55
2023-02-28T04:17:06.815Z,13.63
2023-02-28T04:19:34.344Z,12.70
2023-02-28T04:22:01.286Z,13.68
2023-02-28T04:24:29.414Z,14.88
2023-02-28T04:26:58.610Z,13.25
2023-02-28T04:29:31.434Z,17.10
2023-02-28T04:32:00.035Z,13.43
2023-02-28T04:34:29.244Z,14.15
2023-02-28T04:37:11.843Z,14.95
2023-02-28T04:39:40.417Z,12.80
2023-02-28T04:42:07.628Z,12.75
2023-02-28T04:44:34.899Z,13.55
2023-02-28T04:47:01.877Z,11.30
2023-02-28T04:49:29.128Z,12.30
2023-02-28T04:51:56.776Z,15.07
2023-02-28T04:54:24.124Z,13.52
2023-02-28T04:56:51.275Z,13.98
2023-02-28T04:59:19.023Z,17.48
2023-02-28T05:01:50.085Z,14.77
2023-02-28T05:04:18.031Z,16.05
2023-02-28T05:06:45.478Z,15.00
2023-02-28T05:09:12.837Z,15.80
2023-02-28T05:11:40.548Z,13.70
2023-02-28T05:14:13.289Z,12.98
2023-02-28T05:16:40.431Z,15.63
2023-02-28T05:19:07.760Z,13.75
2023-02-28T05:21:39.005Z,15.15
2023-02-28T05:24:09.157Z,14.38
2023-02-28T05:26:41.041Z,14.10
2023-02-28T05:29:08.710Z,11.55
2023-02-28T05:31:36.500Z,15.15
2023-02-28T05:34:05.437Z,14.60
2023-02-28T05:36:32.677Z,14.50
2023-02-28T05:39:00.361Z,16.85
2023-02-28T05:41:27.792Z,14.02
2023-02-28T05:43:55.499Z,15.10
2023-02-28T05:46:22.504Z,14.98
2023-02-28T05:48:50.285Z,15.52
2023-02-28T05:51:18.168Z,15.65
2023-02-28T05:53:45.697Z,16.17
2023-02-28T05:56:12.677Z,17.10
2023-02-28T05:58:40.211Z,16.40
2023-02-28T06:01:31.999Z,16.35
2023-02-28T06:04:04.403Z,17.08
2023-02-28T06:06:31.971Z,16.13
2023-02-28T06:08:59.300Z,16.08
2023-02-28T06:11:28.640Z,15.63
2023-02-28T06:13:58.379Z,16.85
2023-02-28T06:16:26.086Z,18.33
2023-02-28T06:18:53.798Z,20.63
2023-02-28T06:21:20.809Z,22.20
2023-02-28T06:23:48.359Z,20.05
2023-02-28T06:26:15.428Z,21.30
2023-02-28T06:28:42.742Z,21.92
2023-02-28T06:31:11.555Z,20.40
2023-02-28T06:33:40.222Z,26.83
2023-02-28T06:36:08.145Z,28.63
2023-02-28T06:38:35.588Z,28.15
2023-02-28T06:41:03.542Z,30.23
2023-02-28T06:43:34.067Z,30.13
2023-02-28T06:46:03.826Z,31.77
2023-02-28T06:48:31.839Z,30.65
2023-02-28T06:51:10.180Z,30.42
2023-02-28T06:53:38.322Z,29.80
2023-02-28T06:56:07.477Z,29.65
2023-02-28T06:58:35.908Z,25.63
2023-02-28T07:01:03.574Z,20.38
2023-02-28T07:03:34.281Z,18.42
2023-02-28T07:06:02.060Z,15.45
2023-02-28T07:08:29.855Z,13.13
2023-02-28T07:10:57.631Z,11.43
2023-02-28T07:13:25.354Z,11.55
2023-02-28T07:16:00.550Z,10.73
2023-02-28T07:18:28.844Z,9.23
2023-02-28T07:20:56.394Z,9.35
2023-02-28T07:23:24.746Z,9.18
2023-02-28T07:25:52.129Z,11.23
2023-02-28T07:28:19.444Z,9.93
2023-02-28T07:30:46.566Z,7.82
2023-02-28T07:33:13.879Z,8.18
2023-02-28T07:35:41.069Z,7.68
2023-02-28T07:38:08.876Z,7.72
2023-02-28T07:40:36.808Z,8.10
2023-02-28T07:43:04.917Z,8.10
2023-02-28T07:45:35.280Z,7.93
2023-02-28T07:48:03.354Z,7.47
2023-02-28T07:50:32.253Z,4.88
2023-02-28T07:53:00.676Z,6.82
2023-02-28T07:55:28.253Z,6.45
2023-02-28T07:57:55.795Z,6.40
2023-02-28T08:00:23.481Z,7.25
2023-02-28T08:02:50.984Z,7.00
2023-02-28T08:05:21.818Z,6.75
2023-02-28T08:07:51.271Z,6.32
2023-02-28T08:10:18.738Z,7.13
2023-02-28T08:12:46.322Z,6.88
2023-02-28T08:15:13.728Z,6.43
2023-02-28T08:17:41.207Z,6.78
2023-02-28T08:20:10.002Z,6.50
2023-02-28T08:22:37.534Z,6.18
2023-02-28T08:25:04.928Z,6.65
2023-02-28T08:27:32.476Z,4.63
2023-02-28T08:29:59.679Z,5.20
2023-02-28T08:32:30.230Z,5.43
2023-02-28T08:34:57.780Z,5.13
2023-02-28T08:37:25.287Z,6.00
2023-02-28T08:39:55.681Z,5.80
2023-02-28T08:42:25.045Z,5.72
2023-02-28T08:44:52.447Z,4.38
2023-02-28T08:47:20.362Z,4.95
2023-02-28T08:49:47.359Z,6.03
2023-02-28T08:52:14.876Z,5.53
2023-02-28T08:54:41.843Z,5.00
2023-02-28T08:57:09.138Z,4.95
2023-02-28T08:59:36.532Z,6.03
2023-02-28T09:02:04.179Z,4.90
2023-02-28T09:04:32.199Z,5.03
2023-02-28T09:06:59.519Z,4.50
2023-02-28T09:09:26.548Z,21.08
2023-02-28T09:11:56.108Z,8.50
2023-02-28T09:14:23.072Z,5.53
2023-02-28T09:16:50.864Z,4.88
2023-02-28T09:19:17.862Z,5.50
2023-02-28T09:21:45.373Z,6.30
2023-02-28T09:24:15.277Z,5.15
2023-02-28T09:26:55.908Z,5.28
2023-02-28T09:29:30.045Z,5.30
2023-02-28T09:31:59.842Z,5.55
2023-02-28T09:34:28.066Z,5.00
2023-02-28T09:36:56.318Z,4.80
2023-02-28T09:39:24.179Z,3.97
2023-02-28T09:41:53.418Z,3.80
2023-02-28T09:44:40.470Z,4.53
2023-02-28T09:47:37.391Z,3.92
2023-02-28T09:50:27.901Z,4.22
2023-02-28T09:52:56.264Z,3.95
2023-02-28T09:55:46.299Z,3.67
2023-02-28T09:58:27.231Z,4.13
2023-02-28T10:01:21.848Z,2.80
2023-02-28T10:04:00.040Z,3.75
2023-02-28T10:06:34.704Z,3.20
2023-02-28T10:09:02.649Z,3.78
2023-02-28T10:11:33.605Z,4.78
2023-02-28T10:14:21.460Z,4.63
2023-02-28T10:16:57.745Z,4.22
2023-02-28T10:19:39.806Z,4.78
2023-02-28T10:22:13.160Z,3.92
2023-02-28T10:24:45.114Z,114.78
2023-02-28T10:27:23.887Z,33.10
2023-02-28T10:29:54.253Z,8.95
2023-02-28T10:32:32.006Z,5.82
2023-02-28T10:35:11.150Z,5.68
2023-02-28T10:37:42.981Z,4.85
2023-02-28T10:40:19.456Z,5.70
2023-02-28T10:43:14.384Z,5.60
2023-02-28T10:46:05.281Z,5.72
2023-02-28T10:48:37.036Z,4.80
2023-02-28T10:51:15.995Z,6.05
2023-02-28T10:54:03.636Z,5.97
2023-02-28T10:56:32.459Z,5.07
2023-02-28T10:59:01.681Z,4.82
2023-02-28T11:01:44.416Z,4.75
2023-02-28T11:04:19.322Z,5.40
2023-02-28T11:06:47.501Z,6.55
2023-02-28T11:09:33.727Z,6.22
2023-02-28T11:12:01.777Z,5.97
2023-02-28T11:14:31.982Z,4.65
2023-02-28T11:17:12.791Z,4.28
2023-02-28T11:19:45.421Z,4.97
2023-02-28T11:22:20.427Z,5.18
2023-02-28T11:24:51.264Z,5.38
2023-02-28T11:27:34.827Z,5.47
2023-02-28T11:32:31.641Z,5.55
2023-02-28T11:35:23.421Z,5.60
2023-02-28T11:37:51.439Z,5.13
2023-02-28T11:40:49.007Z,6.88
2023-02-28T11:43:43.915Z,6.15
2023-02-28T11:46:45.999Z,5.78
2023-02-28T11:49:36.890Z,6.90
2023-02-28T11:52:34.570Z,5.38
2023-02-28T11:55:10.891Z,5.57
2023-02-28T11:58:01.757Z,5.40
2023-02-28T12:00:47.712Z,5.78
2023-02-28T12:03:35.147Z,6.22
2023-02-28T12:06:23.206Z,5.03
2023-02-28T12:09:12.996Z,6.15
2023-02-28T12:11:40.257Z,4.75
2023-02-28T12:14:43.069Z,5.40
2023-02-28T12:17:25.567Z,5.38
2023-02-28T12:20:23.590Z,4.78
2023-02-28T12:23:22.101Z,4.50
2023-02-28T12:25:58.120Z,5.50
2023-02-28T12:28:32.387Z,3.92
2023-02-28T12:31:21.298Z,4.70
2023-02-28T12:33:53.697Z,4.45
2023-02-28T12:36:27.281Z,4.33
2023-02-28T12:39:02.299Z,5.30
2023-02-28T12:41:54.097Z,4.75
2023-02-28T12:44:40.382Z,4.00
2023-02-28T12:47:17.485Z,4.35
2023-02-28T12:49:55.661Z,4.57
2023-02-28T12:52:34.835Z,5.10
2023-02-28T12:55:20.812Z,4.53
2023-02-28T12:58:14.522Z,5.35
2023-02-28T13:01:02.002Z,4.25
2023-02-28T13:04:08.023Z,3.60
2023-02-28T13:06:59.458Z,4.85
2023-02-28T13:09:27.082Z,4.90
2023-02-28T13:11:56.754Z,4.60
2023-02-28T13:14:32.584Z,4.25
2023-02-28T13:17:02.617Z,4.53
2023-02-28T13:19:33.689Z,4.50
2023-02-28T13:22:01.889Z,5.13
2023-02-28T13:24:42.799Z,5.22
2023-02-28T13:27:10.762Z,4.68
2023-02-28T13:29:45.414Z,4.78
2023-02-28T13:32:12.874Z,5.38
2023-02-28T13:34:42.959Z,5.55
2023-02-28T13:37:22.076Z,4.45
2023-02-28T13:39:54.452Z,4.55
2023-02-28T13:42:48.349Z,4.00
2023-02-28T13:45:25.840Z,3.67
2023-02-28T13:47:56.506Z,4.60
2023-02-28T13:50:39.694Z,4.65
2023-02-28T13:53:16.290Z,4.28
2023-02-28T13:55:58.456Z,4.32
2023-02-28T13:58:34.934Z,4.53
2023-02-28T14:01:05.725Z,4.75
2023-02-28T14:03:45.737Z,3.92
2023-02-28T14:06:33.829Z,3.90
2023-02-28T14:09:21.431Z,4.88
2023-02-28T14:11:48.691Z,4.95
2023-02-28T14:14:49.016Z,4.70
2023-02-28T14:17:18.373Z,4.00
2023-02-28T14:19:50.998Z,4.43
2023-02-28T14:22:43.752Z,4.60
2023-02-28T14:25:28.147Z,4.68
2023-02-28T14:28:07.431Z,3.85
2023-02-28T14:30:44.251Z,4.38
2023-02-28T14:34:01.438Z,4.82
2023-02-28T14:36:40.638Z,4.10
2023-02-28T14:39:12.172Z,3.97
2023-02-28T14:41:42.305Z,4.15
2023-02-28T14:44:36.968Z,4.50
2023-02-28T14:47:07.453Z,4.50
2023-02-28T14:49:42.788Z,4.40
2023-02-28T14:52:10.842Z,3.85
2023-02-28T14:54:39.051Z,4.00
2023-02-28T14:57:07.180Z,4.20
2023-02-28T14:59:36.575Z,4.90
2023-02-28T15:02:21.065Z,4.68
2023-02-28T15:04:56.689Z,4.70
2023-02-28T15:07:29.972Z,5.25
2023-02-28T15:10:25.892Z,4.93
2023-02-28T15:13:02.941Z,5.28
2023-02-28T15:16:01.864Z,5.20
2023-02-28T15:18:30.371Z,4.57
2023-02-28T15:21:03.233Z,4.80
2023-02-28T15:23:32.015Z,4.78
2023-02-28T15:26:00.263Z,5.30
2023-02-28T15:28:28.848Z,4.93
2023-02-28T15:31:03.049Z,4.18
2023-02-28T15:33:33.138Z,4.65
2023-02-28T15:36:15.615Z,6.05
2023-02-28T15:38:44.777Z,4.47
2023-02-28T15:41:27.970Z,4.13
2023-02-28T15:44:15.845Z,4.80
2023-02-28T15:46:56.477Z,5.32
2023-02-28T15:49:24.837Z,4.57
2023-02-28T15:51:53.758Z,4.80
2023-02-28T15:54:25.569Z,5.00
2023-02-28T15:56:54.978Z,4.22
2023-02-28T15:59:30.378Z,4.72
2023-02-28T16:02:19.720Z,5.38
2023-02-28T16:05:11.905Z,5.60
2023-02-28T16:07:44.905Z,5.68
2023-02-28T16:10:15.095Z,6.88
2023-02-28T16:12:43.057Z,7.00
2023-02-28T16:15:22.606Z,7.00
2023-02-28T16:17:50.350Z,7.30
2023-02-28T16:20:35.986Z,6.32
2023-02-28T16:23:03.967Z,6.53
2023-02-28T16:25:40.420Z,15.32
2023-02-28T16:28:32.201Z,47.40
2023-02-28T16:31:03.663Z,32.72
2023-02-28T16:33:32.086Z,25.42
2023-02-28T16:36:00.163Z,24.67
2023-02-28T16:38:27.529Z,27.25
2023-02-28T16:40:58.789Z,33.28
2023-02-28T16:43:27.660Z,28.73
2023-02-28T16:46:01.304Z,29.63
2023-02-28T16:48:28.736Z,37.33
2023-02-28T16:50:56.378Z,45.45
2023-02-28T16:53:23.381Z,42.08
2023-02-28T16:55:51.982Z,38.88
2023-02-28T16:58:20.273Z,48.83
2023-02-28T17:00:47.933Z,55.80
2023-02-28T17:03:32.723Z,63.17
2023-02-28T17:06:01.041Z,54.13
2023-02-28T17:08:30.384Z,37.03
2023-02-28T17:10:58.265Z,27.33
2023-02-28T17:13:25.424Z,20.90
2023-02-28T17:15:52.879Z,16.98
2023-02-28T17:18:22.121Z,15.73
2023-02-28T17:20:50.124Z,15.90
2023-02-28T17:23:17.219Z,27.02
2023-02-28T17:25:56.379Z,38.30
2023-02-28T17:28:25.937Z,34.83
2023-02-28T17:30:53.541Z,33.45
2023-02-28T17:33:20.706Z,29.05
2023-02-28T17:35:48.037Z,22.00
2023-02-28T17:38:20.401Z,24.65
2023-02-28T17:43:15.874Z,21.48
2023-02-28T17:45:43.281Z,19.33
2023-02-28T17:48:13.827Z,22.30
2023-02-28T17:50:42.808Z,24.65
2023-02-28T17:53:09.914Z,27.58
2023-02-28T17:55:37.779Z,23.02
2023-02-28T17:58:04.937Z,18.48
2023-02-28T18:00:34.549Z,17.92
2023-02-28T18:03:01.707Z,16.33
2023-02-28T18:05:29.117Z,18.50
2023-02-28T18:07:56.877Z,18.98
2023-02-28T18:10:24.551Z,16.38
2023-02-28T18:12:52.876Z,16.40
2023-02-28T18:15:22.661Z,16.38
2023-02-28T18:17:50.691Z,24.30
2023-02-28T18:20:18.813Z,25.77
2023-02-28T18:22:46.028Z,29.50
2023-02-28T18:25:14.674Z,27.58
2023-02-28T18:27:54.224Z,21.40
2023-02-28T18:30:22.821Z,19.75
2023-02-28T18:32:49.864Z,21.38
2023-02-28T18:35:36.057Z,25.55
2023-02-28T18:38:11.450Z,26.05
2023-02-28T18:40:39.220Z,21.50
2023-02-28T18:43:06.729Z,34.33
2023-02-28T18:45:39.251Z,27.27
2023-02-28T18:48:06.680Z,22.85
2023-02-28T18:50:33.980Z,29.27
2023-02-28T18:53:03.370Z,28.67
2023-02-28T18:55:32.545Z,23.60
2023-02-28T18:57:59.749Z,19.95
2023-02-28T19:00:27.193Z,15.32
2023-02-28T19:02:54.169Z,25.30
2023-02-28T19:05:22.070Z,36.17
2023-02-28T19:07:49.497Z,44.47
2023-02-28T19:10:17.191Z,67.72
2023-02-28T19:12:44.215Z,44.75
2023-02-28T19:15:12.264Z,27.88
2023-02-28T19:17:39.766Z,17.33
2023-02-28T19:20:09.764Z,31.80
2023-02-28T19:22:37.181Z,52.65
2023-02-28T19:25:06.565Z,60.17
2023-02-28T19:27:33.901Z,69.97
2023-02-28T19:30:01.524Z,63.45
2023-02-28T19:32:28.791Z,44.67
2023-02-28T19:34:56.278Z,30.85
2023-02-28T19:37:23.335Z,25.42
2023-02-28T19:39:50.711Z,36.42
2023-02-28T19:42:18.863Z,33.33
2023-02-28T19:44:46.371Z,30.27
2023-02-28T19:47:13.763Z,45.58
2023-02-28T19:49:41.421Z,116.18
2023-02-28T19:52:11.759Z,107.25
2023-02-28T19:54:42.455Z,65.00
2023-02-28T19:57:09.610Z,54.97
2023-02-28T19:59:39.783Z,50.67
2023-02-28T20:02:17.445Z,51.22
2023-02-28T20:04:50.128Z,58.85
2023-02-28T20:07:20.282Z,45.57
2023-02-28T20:09:48.690Z,42.63
2023-02-28T20:12:24.113Z,32.88
2023-02-28T20:14:53.380Z,31.90
2023-02-28T20:17:20.335Z,35.92
2023-02-28T20:19:47.721Z,36.22
2023-02-28T20:22:14.666Z,34.25
2023-02-28T20:24:42.263Z,27.67
2023-02-28T20:27:09.253Z,23.98
2023-02-28T20:29:36.575Z,25.20
2023-02-28T20:32:03.674Z,24.23
2023-02-28T20:34:31.007Z,25.60
2023-02-28T20:36:58.785Z,23.20
2023-02-28T20:39:26.556Z,25.92
2023-02-28T20:41:53.532Z,29.40
2023-02-28T20:44:20.818Z,30.98
2023-02-28T20:46:47.758Z,28.88
2023-02-28T20:49:15.879Z,30.88
2023-02-28T20:51:42.910Z,30.55
2023-02-28T20:54:14.037Z,29.58
2023-02-28T20:56:41.148Z,28.77
2023-02-28T20:59:11.328Z,28.05
2023-02-28T21:01:40.835Z,26.90
2023-02-28T21:04:08.722Z,26.63
2023-02-28T21:06:38.826Z,26.48
2023-02-28T21:09:08.486Z,24.67
2023-02-28T21:11:37.739Z,27.88
2023-02-28T21:14:09.623Z,31.98
2023-02-28T21:16:38.056Z,30.55
2023-02-28T21:19:05.830Z,28.98
2023-02-28T21:21:38.626Z,27.60
2023-02-28T21:24:06.836Z,28.58
2023-02-28T21:26:34.003Z,28.50
2023-02-28T21:29:02.849Z,26.75
2023-02-28T21:31:32.351Z,29.42
2023-02-28T21:34:01.677Z,32.70
2023-02-28T21:36:33.050Z,31.35
2023-02-28T21:39:04.302Z,27.13
2023-02-28T21:41:31.409Z,23.70
2023-02-28T21:43:58.921Z,23.08
2023-02-28T21:46:28.342Z,25.13
2023-02-28T21:48:56.252Z,27.23
2023-02-28T21:51:31.071Z,27.27
2023-02-28T21:54:00.017Z,25.55
2023-02-28T21:56:32.716Z,29.65
2023-02-28T22:01:30.635Z,30.65
2023-02-28T22:03:59.188Z,30.35
2023-02-28T22:06:29.791Z,34.25
2023-02-28T22:08:59.497Z,36.53
2023-02-28T22:11:27.351Z,37.42
2023-02-28T22:13:56.187Z,35.40
2023-02-28T22:16:25.042Z,34.15
2023-02-28T22:18:54.310Z,34.88
2023-02-28T22:21:22.320Z,34.58
2023-02-28T22:23:50.117Z,37.40
2023-02-28T22:26:19.603Z,32.88
2023-02-28T22:28:46.944Z,32.72
2023-02-28T22:31:23.219Z,33.97
2023-02-28T22:33:53.348Z,32.08
2023-02-28T22:36:21.021Z,33.20
2023-02-28T22:38:50.840Z,33.17
2023-02-28T22:41:20.739Z,32.83
2023-02-28T22:43:53.628Z,33.25
2023-02-28T22:46:21.860Z,32.08
2023-02-28T22:48:50.005Z,32.75
2023-02-28T22:51:20.387Z,31.10
2023-02-28T22:53:49.173Z,32.88
2023-02-28T22:56:19.032Z,32.35
2023-02-28T22:58:57.284Z,34.33
2023-02-28T23:01:26.935Z,35.53
2023-02-28T23:03:54.922Z,34.42
2023-02-28T23:06:25.725Z,34.15
2023-02-28T23:08:56.609Z,34.15
2023-02-28T23:11:26.625Z,34.17
2023-02-28T23:14:00.236Z,31.58
2023-02-28T23:16:33.463Z,32.40
2023-02-28T23:19:04.223Z,36.75
2023-02-28T23:21:31.742Z,46.28
2023-02-28T23:24:02.677Z,41.92
2023-02-28T23:26:31.434Z,40.95
2023-02-28T23:28:59.494Z,36.88
2023-02-28T23:31:26.737Z,36.65
2023-02-28T23:33:55.420Z,34.25
2023-02-28T23:36:22.713Z,32.88
2023-02-28T23:38:51.827Z,35.90
2023-02-28T23:41:20.617Z,33.88
2023-02-28T23:43:48.326Z,34.35
2023-02-28T23:46:18.004Z,34.85
2023-02-28T23:48:45.794Z,33.05
2023-02-28T23:51:16.815Z,33.85
2023-02-28T23:53:47.270Z,29.75
2023-02-28T23:56:16.761Z,31.52
2023-02-28T23:58:45.850Z,27.98
